Time;durP1;ratioP1;P1;durP2;ratioP2;P2;SDS_P1;SDS_P2;PMS_P1;PMS_P2;Temp;Humidity;BMP_temperature;BMP_pressure;BME280_temperature;BME280_humidity;BME280_pressure;Samples;Min_cycle;Max_cycle;Signal;HPM_P1;HPM_P2
2023/08/05 00:02:11;;;;;;;6.65;2.40;;;16.40;99.90;;;;;;4966948;28;20196;-85
2023/08/05 00:04:38;;;;;;;4.45;2.13;;;16.30;99.90;;;;;;4975752;28;20687;-84
2023/08/05 00:07:06;;;;;;;5.03;2.20;;;16.20;99.90;;;;;;4966572;28;20196;-84
2023/08/05 00:09:33;;;;;;;3.80;2.13;;;16.30;99.90;;;;;;4973483;28;20192;-86
2023/08/05 00:12:01;;;;;;;4.97;2.33;;;16.20;99.90;;;;;;4966550;28;20216;-84
2023/08/05 00:14:29;;;;;;;5.28;2.22;;;16.30;99.90;;;;;;4966744;28;20763;-85
2023/08/05 00:16:56;;;;;;;3.40;1.77;;;16.30;99.90;;;;;;4965896;28;20278;-85
2023/08/05 00:19:24;;;;;;;6.90;2.55;;;16.20;99.90;;;;;;4966955;28;20195;-85
2023/08/05 00:21:51;;;;;;;4.93;2.00;;;16.30;99.90;;;;;;4964637;28;20196;-84
2023/08/05 00:24:19;;;;;;;6.50;2.30;;;16.20;99.90;;;;;;4950057;28;20658;-84
2023/08/05 00:26:46;;;;;;;3.40;2.08;;;16.10;99.90;;;;;;4967680;28;20222;-84
2023/08/05 00:29:14;;;;;;;6.10;2.67;;;16.10;99.90;;;;;;4973118;28;20223;-85
2023/08/05 00:31:42;;;;;;;10.05;2.33;;;16.00;99.90;;;;;;4966218;28;20739;-84
2023/08/05 00:34:10;;;;;;;4.75;1.98;;;16.10;99.90;;;;;;4973247;28;20190;-86
2023/08/05 00:36:37;;;;;;;3.10;2.17;;;16.10;99.90;;;;;;4967072;28;20588;-85
2023/08/05 00:39:05;;;;;;;2.70;2.17;;;16.20;99.90;;;;;;4977519;28;20234;-85
2023/08/05 00:41:33;;;;;;;5.75;2.45;;;16.20;99.90;;;;;;4966477;28;20283;-85
2023/08/05 00:44:00;;;;;;;9.48;2.22;;;15.90;99.90;;;;;;4966038;28;20188;-84
2023/08/05 00:46:28;;;;;;;3.75;2.22;;;15.80;99.90;;;;;;4966219;28;20215;-84
2023/08/05 00:48:56;;;;;;;4.95;2.67;;;15.70;99.90;;;;;;4966099;28;20237;-84
2023/08/05 00:51:24;;;;;;;3.58;2.53;;;15.70;99.90;;;;;;4966036;28;20498;-84
2023/08/05 00:53:51;;;;;;;4.03;2.83;;;15.60;99.90;;;;;;4964560;28;20662;-85
2023/08/05 00:56:19;;;;;;;3.90;2.00;;;15.60;99.90;;;;;;4961486;28;20623;-83
2023/08/05 00:58:47;;;;;;;5.68;2.40;;;15.70;99.90;;;;;;4956132;28;20223;-84
2023/08/05 01:01:14;;;;;;;3.67;2.65;;;15.80;99.90;;;;;;4966025;28;20192;-85
2023/08/05 01:03:42;;;;;;;3.50;2.47;;;15.80;99.90;;;;;;4965871;28;20717;-87
2023/08/05 01:06:11;;;;;;;7.28;2.28;;;15.80;99.90;;;;;;4966959;28;20208;-83
2023/08/05 01:08:39;;;;;;;4.60;2.60;;;15.80;99.90;;;;;;4969562;28;20195;-85
2023/08/05 01:11:07;;;;;;;3.33;2.60;;;15.80;99.90;;;;;;4969383;28;20188;-86
2023/08/05 01:13:37;;;;;;;4.40;2.53;;;15.70;99.90;;;;;;4967798;28;20744;-85
2023/08/05 01:16:05;;;;;;;5.72;2.67;;;15.70;99.90;;;;;;4967718;28;20650;-87
2023/08/05 01:18:38;;;;;;;5.93;2.65;;;15.70;99.90;;;;;;4968839;28;20241;-85
2023/08/05 01:21:13;;;;;;;4.18;2.88;;;15.70;99.90;;;;;;4965347;28;20204;-85
2023/08/05 01:23:56;;;;;;;6.38;2.75;;;15.40;99.90;;;;;;4967473;28;20195;-85
2023/08/05 01:26:24;;;;;;;3.70;2.67;;;15.40;99.90;;;;;;4967819;28;20197;-84
2023/08/05 01:28:52;;;;;;;7.85;3.30;;;15.50;99.90;;;;;;4969340;28;20649;-85
2023/08/05 01:31:20;;;;;;;4.22;3.10;;;15.70;99.90;;;;;;4951444;28;20203;-86
2023/08/05 01:33:48;;;;;;;7.80;3.50;;;15.40;99.90;;;;;;4969021;28;20192;-84
2023/08/05 01:36:20;;;;;;;7.28;3.80;;;15.20;99.90;;;;;;4951375;28;20646;-85
2023/08/05 01:38:48;;;;;;;5.53;3.75;;;15.30;99.90;;;;;;4967321;28;20224;-84
2023/08/05 01:41:16;;;;;;;7.50;3.47;;;15.40;99.90;;;;;;4949356;28;20207;-85
2023/08/05 01:43:43;;;;;;;5.32;3.92;;;15.40;99.90;;;;;;4948106;28;20199;-83
2023/08/05 01:46:11;;;;;;;4.78;3.70;;;15.40;99.90;;;;;;4968323;28;20204;-86
2023/08/05 01:48:39;;;;;;;6.15;3.80;;;15.30;99.90;;;;;;4969033;28;20282;-86
2023/08/05 01:51:06;;;;;;;7.03;4.15;;;15.30;99.90;;;;;;4967410;28;20581;-82
2023/08/05 01:53:34;;;;;;;6.43;4.20;;;15.30;99.90;;;;;;4968338;28;20347;-85
2023/08/05 01:56:02;;;;;;;4.57;4.10;;;15.20;99.90;;;;;;4951395;28;20219;-85
2023/08/05 01:58:30;;;;;;;9.43;6.07;;;15.20;99.90;;;;;;4965515;28;20200;-85
2023/08/05 02:00:58;;;;;;;9.10;5.22;;;15.20;99.90;;;;;;4951149;28;20858;-85
2023/08/05 02:03:26;;;;;;;7.70;4.60;;;15.20;99.90;;;;;;4966792;28;20196;-84
2023/08/05 02:05:54;;;;;;;7.78;4.65;;;15.00;99.90;;;;;;5012804;28;20203;-84
2023/08/05 02:08:21;;;;;;;7.85;5.53;;;15.10;99.90;;;;;;4975750;28;20693;-84
2023/08/05 02:10:49;;;;;;;9.20;4.82;;;15.10;99.90;;;;;;4976791;28;20190;-84
2023/08/05 02:13:18;;;;;;;5.90;4.70;;;15.10;99.90;;;;;;4967851;28;20211;-85
2023/08/05 02:15:45;;;;;;;8.27;5.07;;;15.10;99.90;;;;;;4977145;28;20202;-85
2023/08/05 02:18:13;;;;;;;6.35;4.40;;;15.20;99.90;;;;;;4966818;28;20701;-83
2023/08/05 02:20:41;;;;;;;6.05;4.70;;;15.20;99.90;;;;;;4964177;28;20317;-84
2023/08/05 02:23:08;;;;;;;5.75;4.20;;;15.20;99.90;;;;;;4966797;28;20195;-85
2023/08/05 02:25:36;;;;;;;5.30;4.20;;;15.30;99.90;;;;;;4967959;28;20208;-84
2023/08/05 02:28:03;;;;;;;5.90;4.05;;;15.40;99.90;;;;;;4966838;28;20207;-85
2023/08/05 02:30:31;;;;;;;8.20;4.35;;;15.40;99.90;;;;;;4966496;28;20192;-85
2023/08/05 02:32:58;;;;;;;9.05;3.88;;;15.40;99.90;;;;;;4950472;28;20191;-85
2023/08/05 02:35:26;;;;;;;3.97;3.38;;;15.40;99.90;;;;;;4972566;28;20313;-84
2023/08/05 02:37:53;;;;;;;7.70;3.35;;;15.40;99.90;;;;;;4967884;28;20716;-86
2023/08/05 02:40:21;;;;;;;7.82;4.20;;;15.40;99.90;;;;;;4966259;28;20196;-85
2023/08/05 02:42:48;;;;;;;6.22;3.50;;;15.20;99.90;;;;;;4967742;28;20923;-86
2023/08/05 02:45:18;;;;;;;6.80;4.00;;;15.10;99.90;;;;;;4962434;28;20197;-84
2023/08/05 02:47:45;;;;;;;5.32;3.70;;;15.10;99.90;;;;;;4960576;28;20727;-84
2023/08/05 02:50:13;;;;;;;9.77;4.05;;;15.10;99.90;;;;;;4968008;28;20271;-86
2023/08/05 02:52:40;;;;;;;6.45;3.90;;;15.20;99.90;;;;;;4950941;28;20185;-84
2023/08/05 02:55:08;;;;;;;6.85;3.97;;;15.20;99.90;;;;;;4963378;28;20281;-85
2023/08/05 02:57:35;;;;;;;7.43;4.47;;;15.10;99.90;;;;;;4957226;28;20188;-85
2023/08/05 03:00:04;;;;;;;7.18;4.07;;;15.10;99.90;;;;;;4975601;28;20246;-83
2023/08/05 03:02:31;;;;;;;6.60;4.82;;;15.10;99.90;;;;;;4966176;28;20557;-85
2023/08/05 03:04:59;;;;;;;8.50;4.80;;;14.90;99.90;;;;;;4949557;28;20200;-84
2023/08/05 03:07:27;;;;;;;5.18;4.40;;;14.70;99.90;;;;;;4967142;28;20585;-85
2023/08/05 03:09:55;;;;;;;9.25;4.82;;;14.80;99.90;;;;;;4967641;28;20920;-85
2023/08/05 03:12:22;;;;;;;5.55;4.20;;;14.70;99.90;;;;;;4967698;28;20710;-83
2023/08/05 03:14:53;;;;;;;6.18;3.58;;;14.70;99.90;;;;;;4973994;28;20203;-85
2023/08/05 03:17:21;;;;;;;5.30;3.92;;;14.90;99.90;;;;;;4967379;28;20707;-84
2023/08/05 03:19:53;;;;;;;7.75;4.40;;;14.90;99.90;;;;;;4966306;28;20219;-84
2023/08/05 03:22:23;;;;;;;5.88;4.10;;;14.90;99.90;;;;;;4974267;28;20210;-84
2023/08/05 03:24:50;;;;;;;6.40;4.43;;;14.80;99.90;;;;;;4966455;28;20294;-86
2023/08/05 03:27:18;;;;;;;6.07;3.88;;;14.80;99.90;;;;;;4965768;28;20579;-84
2023/08/05 03:29:47;;;;;;;6.53;3.60;;;14.80;99.90;;;;;;4967253;28;20184;-86
2023/08/05 03:32:15;;;;;;;6.03;3.63;;;14.80;99.90;;;;;;4967891;28;20185;-86
2023/08/05 03:34:42;;;;;;;4.50;3.47;;;14.90;99.90;;;;;;4962748;28;20258;-86
2023/08/05 03:37:11;;;;;;;5.53;3.85;;;15.00;99.90;;;;;;4955562;28;20224;-85
2023/08/05 03:39:39;;;;;;;6.50;4.25;;;15.10;99.90;;;;;;4966860;28;20204;-84
2023/08/05 03:42:07;;;;;;;4.30;3.90;;;15.10;99.90;;;;;;4969528;28;20200;-84
2023/08/05 03:44:35;;;;;;;6.05;4.20;;;15.20;99.90;;;;;;4961699;28;20204;-85
2023/08/05 03:47:03;;;;;;;7.07;4.80;;;15.20;99.90;;;;;;4964500;28;20311;-83
2023/08/05 03:49:30;;;;;;;6.15;4.80;;;15.10;99.90;;;;;;4973028;28;20198;-85
2023/08/05 03:51:59;;;;;;;7.13;4.88;;;15.20;99.90;;;;;;4960541;28;20303;-85
2023/08/05 03:54:26;;;;;;;6.30;4.47;;;15.10;99.90;;;;;;4963482;28;20830;-84
2023/08/05 03:56:58;;;;;;;10.15;4.93;;;15.10;99.90;;;;;;4964767;28;20188;-85
2023/08/05 03:59:26;;;;;;;5.53;4.80;;;15.10;99.90;;;;;;4976134;28;20211;-85
2023/08/05 04:01:54;;;;;;;5.88;4.03;;;15.10;99.90;;;;;;4965310;28;20645;-83
2023/08/05 04:04:22;;;;;;;4.45;4.03;;;15.20;99.90;;;;;;4948746;28;20269;-83
2023/08/05 04:06:50;;;;;;;6.22;4.28;;;15.20;99.90;;;;;;4967334;28;20711;-83
2023/08/05 04:09:19;;;;;;;5.70;4.85;;;15.30;99.90;;;;;;4965193;28;20184;-84
2023/08/05 04:11:49;;;;;;;10.07;5.30;;;15.30;99.90;;;;;;4966576;28;20206;-84
2023/08/05 04:14:19;;;;;;;5.97;4.38;;;15.20;99.90;;;;;;4977523;28;20249;-85
2023/08/05 04:16:49;;;;;;;7.70;4.20;;;15.20;99.90;;;;;;4966726;28;20223;-84
2023/08/05 04:19:19;;;;;;;6.10;4.32;;;15.30;99.90;;;;;;4954820;28;20282;-84
2023/08/05 04:21:47;;;;;;;4.60;3.38;;;15.30;99.90;;;;;;4933591;28;20192;-84
2023/08/05 04:24:18;;;;;;;6.55;3.83;;;15.30;99.90;;;;;;4973068;28;20212;-84
2023/08/05 04:26:45;;;;;;;5.10;3.80;;;15.30;99.90;;;;;;4965527;28;20219;-84
2023/08/05 04:29:17;;;;;;;6.13;4.30;;;15.30;99.90;;;;;;4965545;28;20291;-83
2023/08/05 04:31:45;;;;;;;5.28;3.95;;;15.40;99.90;;;;;;4966453;28;20192;-84
2023/08/05 04:34:13;;;;;;;5.65;3.53;;;15.40;99.90;;;;;;4966790;28;20191;-85
2023/08/05 04:36:45;;;;;;;4.05;3.40;;;15.40;99.90;;;;;;4966001;28;20898;-84
2023/08/05 04:39:13;;;;;;;6.95;4.65;;;15.50;99.90;;;;;;4964178;28;20191;-85
2023/08/05 04:41:40;;;;;;;8.85;4.25;;;15.50;99.90;;;;;;4965891;28;20211;-83
2023/08/05 04:44:09;;;;;;;9.40;4.65;;;15.60;99.90;;;;;;4965881;28;20188;-84
2023/08/05 04:46:37;;;;;;;8.02;4.32;;;15.60;99.90;;;;;;4968758;28;20220;-84
2023/08/05 04:49:07;;;;;;;7.03;4.68;;;15.60;99.90;;;;;;4969307;28;20188;-86
2023/08/05 04:51:35;;;;;;;5.38;3.95;;;15.60;99.90;;;;;;4969349;28;20198;-83
2023/08/05 04:54:03;;;;;;;7.50;5.10;;;15.70;99.90;;;;;;4967981;28;20206;-84
2023/08/05 04:56:33;;;;;;;7.45;4.40;;;15.70;99.90;;;;;;4961209;28;20283;-83
2023/08/05 04:59:01;;;;;;;6.55;4.18;;;15.70;99.90;;;;;;4962081;28;20261;-85
2023/08/05 05:01:29;;;;;;;4.80;4.30;;;15.70;99.90;;;;;;4963633;28;20210;-85
2023/08/05 05:03:57;;;;;;;6.45;4.50;;;15.70;99.90;;;;;;4961262;28;20195;-84
2023/08/05 05:06:34;;;;;;;6.32;4.80;;;15.70;99.90;;;;;;4962638;28;20648;-84
2023/08/05 05:09:02;;;;;;;5.65;4.68;;;15.70;99.90;;;;;;4959026;28;20189;-86
2023/08/05 05:11:29;;;;;;;8.57;5.30;;;15.80;99.90;;;;;;4956254;28;20203;-83
2023/08/05 05:13:57;;;;;;;7.88;5.53;;;15.80;99.90;;;;;;4959077;28;20211;-84
2023/08/05 05:16:25;;;;;;;8.27;5.50;;;15.80;99.90;;;;;;4956126;28;20207;-83
2023/08/05 05:18:52;;;;;;;7.93;4.97;;;15.80;99.90;;;;;;4959611;28;20188;-84
2023/08/05 05:21:20;;;;;;;8.32;5.30;;;15.80;99.90;;;;;;4964435;28;20216;-84
2023/08/05 05:23:47;;;;;;;7.00;5.03;;;15.90;99.90;;;;;;4965903;28;20235;-83
2023/08/05 05:26:15;;;;;;;6.88;6.13;;;15.90;99.90;;;;;;4963681;28;20214;-84
2023/08/05 05:28:43;;;;;;;11.70;5.47;;;15.90;99.90;;;;;;4939537;28;20251;-84
2023/08/05 05:31:10;;;;;;;10.07;6.00;;;15.90;99.90;;;;;;4956318;28;20195;-84
2023/08/05 05:33:47;;;;;;;7.47;6.20;;;16.00;99.90;;;;;;4958068;28;20191;-83
2023/08/05 05:36:15;;;;;;;8.85;5.97;;;16.00;99.90;;;;;;4960085;28;20188;-85
2023/08/05 05:38:42;;;;;;;11.25;6.20;;;16.10;99.90;;;;;;4954803;28;20778;-83
2023/08/05 05:41:11;;;;;;;8.80;5.53;;;16.10;99.90;;;;;;4958604;28;20202;-85
2023/08/05 05:43:38;;;;;;;7.60;4.80;;;16.10;99.90;;;;;;4960246;28;20295;-87
2023/08/05 05:46:09;;;;;;;6.53;4.40;;;16.10;99.90;;;;;;4960118;28;20180;-83
2023/08/05 05:48:37;;;;;;;8.30;4.60;;;16.20;99.90;;;;;;4962019;28;20257;-83
2023/08/05 05:51:04;;;;;;;6.95;4.00;;;16.20;99.90;;;;;;4959517;28;20180;-83
2023/08/05 05:53:32;;;;;;;9.55;4.80;;;16.20;99.90;;;;;;4958118;28;20188;-84
2023/08/05 05:56:01;;;;;;;6.20;4.45;;;16.20;99.90;;;;;;4958978;28;20189;-84
2023/08/05 05:58:33;;;;;;;5.20;4.25;;;16.30;99.90;;;;;;4963381;28;20739;-85
2023/08/05 06:01:02;;;;;;;11.73;5.18;;;16.30;99.90;;;;;;4959418;28;20188;-85
2023/08/05 06:03:33;;;;;;;6.93;4.90;;;16.40;99.90;;;;;;4967881;28;20188;-84
2023/08/05 06:06:02;;;;;;;7.32;4.47;;;16.40;99.90;;;;;;4961536;28;20184;-85
2023/08/05 06:08:31;;;;;;;8.32;4.70;;;16.50;99.90;;;;;;4959933;28;20577;-85
2023/08/05 06:11:06;;;;;;;11.02;4.97;;;16.50;99.90;;;;;;4958788;28;20570;-84
2023/08/05 06:13:34;;;;;;;8.18;4.28;;;16.50;99.90;;;;;;4960729;28;20207;-84
2023/08/05 06:16:02;;;;;;;5.75;4.03;;;16.60;99.90;;;;;;4961035;28;20192;-82
2023/08/05 06:18:29;;;;;;;7.72;4.13;;;16.70;99.90;;;;;;4955504;28;20192;-82
2023/08/05 06:20:58;;;;;;;7.28;3.72;;;16.70;99.90;;;;;;4956344;28;20254;-85
2023/08/05 06:23:26;;;;;;;4.65;3.55;;;16.70;99.90;;;;;;4957326;28;20263;-83
2023/08/05 06:25:54;;;;;;;7.30;3.72;;;16.70;99.90;;;;;;4959006;28;20188;-84
2023/08/05 06:28:23;;;;;;;8.70;3.60;;;16.80;99.90;;;;;;4958060;28;20201;-85
2023/08/05 06:30:51;;;;;;;6.32;3.58;;;16.80;99.90;;;;;;4955323;28;20267;-85
2023/08/05 06:33:21;;;;;;;4.35;3.20;;;16.90;99.90;;;;;;4958039;28;20200;-84
2023/08/05 06:35:49;;;;;;;4.45;3.30;;;16.90;99.90;;;;;;4955934;28;20202;-84
2023/08/05 06:38:18;;;;;;;3.80;3.22;;;17.00;99.90;;;;;;4961481;28;20585;-83
2023/08/05 06:40:51;;;;;;;8.48;3.53;;;17.10;99.90;;;;;;4957373;28;20670;-86
2023/08/05 06:43:18;;;;;;;3.97;2.72;;;17.10;99.90;;;;;;4958110;28;20250;-83
2023/08/05 06:45:47;;;;;;;4.35;2.72;;;17.30;99.90;;;;;;4957093;28;20217;-86
2023/08/05 06:48:15;;;;;;;5.22;2.42;;;17.20;99.90;;;;;;4941649;28;20954;-83
2023/08/05 06:50:43;;;;;;;7.72;2.65;;;17.30;99.90;;;;;;4958353;28;20189;-85
2023/08/05 06:53:11;;;;;;;5.75;2.83;;;17.40;99.90;;;;;;4953358;28;20180;-85
2023/08/05 06:55:38;;;;;;;3.72;2.40;;;17.40;99.90;;;;;;4955052;28;20197;-84
2023/08/05 06:58:06;;;;;;;6.78;2.40;;;17.60;99.90;;;;;;4967192;28;20196;-85
2023/08/05 07:00:33;;;;;;;4.07;2.50;;;17.60;99.90;;;;;;4967315;28;20188;-82
2023/08/05 07:03:03;;;;;;;3.58;1.88;;;17.60;99.90;;;;;;4967329;28;20195;-85
2023/08/05 07:05:31;;;;;;;4.45;2.55;;;17.80;99.90;;;;;;4954055;28;20195;-84
2023/08/05 07:08:00;;;;;;;4.15;2.08;;;17.90;99.90;;;;;;4954892;28;20291;-83
2023/08/05 07:10:27;;;;;;;6.32;2.00;;;18.00;99.90;;;;;;4956871;28;20193;-85
2023/08/05 07:12:55;;;;;;;5.10;1.98;;;18.00;99.90;;;;;;4957103;28;20632;-83
2023/08/05 07:15:22;;;;;;;4.43;2.47;;;17.90;99.90;;;;;;4959945;28;20198;-84
2023/08/05 07:17:49;;;;;;;5.55;2.50;;;18.10;99.90;;;;;;4957500;28;20192;-85
2023/08/05 07:20:22;;;;;;;3.33;1.85;;;18.40;99.90;;;;;;4957752;28;20192;-84
2023/08/05 07:22:52;;;;;;;5.32;2.03;;;18.40;99.90;;;;;;4964808;28;20768;-85
2023/08/05 07:25:19;;;;;;;3.53;2.08;;;18.40;99.90;;;;;;4967501;28;20192;-82
2023/08/05 07:27:47;;;;;;;4.28;2.15;;;18.60;99.90;;;;;;4966989;28;20215;-84
2023/08/05 07:30:15;;;;;;;7.47;1.90;;;18.40;99.90;;;;;;4967251;28;20543;-83
2023/08/05 07:32:42;;;;;;;1.83;1.58;;;18.50;99.90;;;;;;4969848;28;20760;-83
2023/08/05 07:35:10;;;;;;;3.05;1.85;;;18.60;99.90;;;;;;4970204;28;20191;-86
2023/08/05 07:37:38;;;;;;;1.90;1.70;;;18.60;99.90;;;;;;4972883;28;20234;-81
2023/08/05 07:40:12;;;;;;;4.85;2.75;;;18.70;99.90;;;;;;4965953;28;20223;-84
2023/08/05 07:42:42;;;;;;;4.00;2.45;;;18.70;99.90;;;;;;4968454;28;20199;-84
2023/08/05 07:45:16;;;;;;;3.72;2.42;;;18.90;99.90;;;;;;4968975;28;20202;-85
2023/08/05 07:47:45;;;;;;;13.00;5.97;;;18.90;99.90;;;;;;4973829;28;20235;-84
2023/08/05 07:50:21;;;;;;;12.13;4.47;;;18.90;99.90;;;;;;4969526;28;20188;-84
2023/08/05 07:52:53;;;;;;;30.33;11.20;;;19.00;99.90;;;;;;4952474;28;20203;-85
2023/08/05 07:55:22;;;;;;;8.90;4.45;;;19.00;99.90;;;;;;4965751;28;20200;-85
2023/08/05 07:57:49;;;;;;;7.85;5.18;;;19.10;99.90;;;;;;4965631;28;20909;-86
2023/08/05 08:00:17;;;;;;;5.63;3.35;;;19.20;99.90;;;;;;4967434;28;20200;-85
2023/08/05 08:02:44;;;;;;;3.55;2.70;;;19.30;99.90;;;;;;4968734;28;20200;-85
2023/08/05 08:05:14;;;;;;;4.93;2.42;;;19.40;99.90;;;;;;4968173;28;20188;-85
2023/08/05 08:07:46;;;;;;;3.22;2.38;;;19.30;99.90;;;;;;4961529;28;20232;-85
2023/08/05 08:10:14;;;;;;;5.45;2.35;;;19.30;99.90;;;;;;4965051;28;20770;-85
2023/08/05 08:12:43;;;;;;;5.95;2.75;;;19.60;99.90;;;;;;4969273;28;20198;-84
2023/08/05 08:15:11;;;;;;;5.38;2.42;;;19.60;99.90;;;;;;4968110;28;20242;-85
2023/08/05 08:17:38;;;;;;;5.15;2.75;;;19.60;99.90;;;;;;4969288;28;20286;-86
2023/08/05 08:20:08;;;;;;;2.70;2.20;;;19.80;99.90;;;;;;4968214;28;20192;-83
2023/08/05 08:22:35;;;;;;;4.20;2.47;;;19.80;99.90;;;;;;4969413;28;20203;-83
2023/08/05 08:25:03;;;;;;;4.53;2.92;;;19.90;99.90;;;;;;4968921;28;20218;-84
2023/08/05 08:27:31;;;;;;;3.60;2.30;;;19.90;99.90;;;;;;4968036;28;20208;-83
2023/08/05 08:29:59;;;;;;;5.55;2.75;;;20.10;99.90;;;;;;4968307;28;20729;-83
2023/08/05 08:32:26;;;;;;;7.82;4.30;;;20.10;99.90;;;;;;4968072;28;20245;-85
2023/08/05 08:34:56;;;;;;;6.15;3.15;;;20.10;99.90;;;;;;4969767;28;20204;-82
2023/08/05 08:37:27;;;;;;;6.93;2.78;;;19.90;99.90;;;;;;4969515;28;20307;-84
2023/08/05 08:39:55;;;;;;;3.30;2.47;;;19.90;99.90;;;;;;4968223;28;20283;-86
2023/08/05 08:42:26;;;;;;;4.53;2.83;;;20.10;99.90;;;;;;4971841;28;20184;-83
2023/08/05 08:44:54;;;;;;;3.72;2.38;;;19.90;99.90;;;;;;4952062;28;20306;-83
2023/08/05 08:47:23;;;;;;;4.47;2.85;;;19.90;99.90;;;;;;4951843;28;20207;-83
2023/08/05 08:49:53;;;;;;;10.32;3.00;;;19.90;99.90;;;;;;4949095;28;20212;-83
2023/08/05 08:52:21;;;;;;;8.02;5.07;;;19.90;99.90;;;;;;4956618;28;20214;-85
2023/08/05 08:54:50;;;;;;;10.75;6.97;;;19.90;99.90;;;;;;4969802;28;20199;-83
2023/08/05 08:57:18;;;;;;;6.80;5.13;;;19.90;99.90;;;;;;4969194;28;20724;-85
2023/08/05 08:59:47;;;;;;;8.90;3.90;;;19.90;99.90;;;;;;4968385;28;20249;-83
2023/08/05 09:02:25;;;;;;;11.45;6.10;;;20.00;99.90;;;;;;4968541;28;20201;-84
2023/08/05 09:04:54;;;;;;;3.63;2.50;;;20.00;99.90;;;;;;4965003;28;20189;-83
2023/08/05 09:07:27;;;;;;;5.00;2.90;;;20.20;99.90;;;;;;4968252;28;20600;-83
2023/08/05 09:09:57;;;;;;;3.65;2.60;;;20.50;99.90;;;;;;4974492;28;20240;-82
2023/08/05 09:12:29;;;;;;;5.68;2.85;;;20.60;99.90;;;;;;4965975;28;20567;-84
2023/08/05 09:14:57;;;;;;;7.40;2.17;;;20.80;99.90;;;;;;4961437;28;20195;-84
2023/08/05 09:17:26;;;;;;;5.30;3.22;;;20.70;99.90;;;;;;4967394;28;20196;-83
2023/08/05 09:19:54;;;;;;;6.05;2.88;;;20.80;99.90;;;;;;4968515;28;20227;-82
2023/08/05 09:22:22;;;;;;;8.93;3.05;;;21.00;99.90;;;;;;4967982;28;20238;-82
2023/08/05 09:24:49;;;;;;;6.55;2.85;;;21.30;99.90;;;;;;4966980;28;20200;-83
2023/08/05 09:27:17;;;;;;;3.08;2.33;;;21.30;99.90;;;;;;4967867;28;20243;-82
2023/08/05 09:29:44;;;;;;;7.10;4.32;;;21.30;99.90;;;;;;4965899;28;20241;-84
2023/08/05 09:32:12;;;;;;;3.30;2.13;;;21.40;99.90;;;;;;4967963;28;20247;-84
2023/08/05 09:34:43;;;;;;;4.80;3.13;;;21.30;99.90;;;;;;4967841;28;20188;-83
2023/08/05 09:37:13;;;;;;;4.50;2.85;;;21.30;99.90;;;;;;4959159;28;20560;-83
2023/08/05 09:39:45;;;;;;;5.25;2.70;;;21.40;99.90;;;;;;4967884;28;20207;-83
2023/08/05 09:42:21;;;;;;;5.45;2.72;;;21.40;99.90;;;;;;4967669;28;20179;-85
2023/08/05 09:44:54;;;;;;;4.82;2.45;;;21.30;99.90;;;;;;4964130;28;20199;-82
2023/08/05 09:47:27;;;;;;;4.65;2.75;;;21.20;99.90;;;;;;4964481;28;20208;-83
2023/08/05 09:49:56;;;;;;;2.90;2.60;;;21.20;99.90;;;;;;4967795;28;20188;-83
2023/08/05 09:52:25;;;;;;;2.75;2.30;;;21.20;99.90;;;;;;4980911;28;20191;-83
2023/08/05 09:55:07;;;;;;;2.97;2.55;;;21.20;99.90;;;;;;4981726;28;20676;-82
2023/08/05 09:57:37;;;;;;;4.90;2.78;;;21.20;99.90;;;;;;4947805;28;20207;-84
2023/08/05 10:00:10;;;;;;;5.85;2.92;;;21.20;99.90;;;;;;4968604;28;20192;-83
2023/08/05 10:02:45;;;;;;;6.80;2.28;;;21.20;99.90;;;;;;4967868;28;20184;-83
2023/08/05 10:05:14;;;;;;;4.05;2.50;;;21.30;99.90;;;;;;4966794;28;20278;-84
2023/08/05 10:07:43;;;;;;;6.15;2.70;;;21.50;99.90;;;;;;4966870;28;20633;-84
2023/08/05 10:10:13;;;;;;;3.53;2.42;;;21.60;99.90;;;;;;4965511;28;20275;-84
2023/08/05 10:13:01;;;;;;;4.47;2.92;;;21.60;99.90;;;;;;4967108;28;20282;-83
2023/08/05 10:15:35;;;;;;;4.53;2.53;;;21.40;99.90;;;;;;4961198;28;20216;-80
2023/08/05 10:18:10;;;;;;;3.58;2.30;;;21.60;99.90;;;;;;4949002;28;20223;-83
2023/08/05 10:20:39;;;;;;;5.55;2.67;;;21.50;99.90;;;;;;4967626;28;20226;-83
2023/08/05 10:23:13;;;;;;;3.35;2.33;;;21.60;99.90;;;;;;4967285;28;20273;-82
2023/08/05 10:25:45;;;;;;;4.97;2.75;;;21.70;99.90;;;;;;4967590;28;20241;-83
2023/08/05 10:28:25;;;;;;;4.82;2.50;;;21.90;99.90;;;;;;4966066;28;20243;-84
2023/08/05 10:30:56;;;;;;;5.18;2.92;;;21.70;99.90;;;;;;4966944;28;20192;-83
2023/08/05 10:33:27;;;;;;;3.38;2.30;;;21.70;99.90;;;;;;4981688;28;20246;-82
2023/08/05 10:36:07;;;;;;;3.78;2.30;;;21.70;99.90;;;;;;4966687;28;20270;-81
2023/08/05 10:38:42;;;;;;;3.78;2.20;;;21.70;99.90;;;;;;4966429;28;20350;-83
2023/08/05 10:41:14;;;;;;;6.40;2.72;;;21.60;99.90;;;;;;4966891;28;20202;-83
2023/08/05 10:43:42;;;;;;;4.32;2.33;;;21.70;99.90;;;;;;4966979;28;20199;-83
2023/08/05 10:46:13;;;;;;;6.75;2.10;;;21.70;99.90;;;;;;4966876;28;20192;-82
2023/08/05 10:48:42;;;;;;;2.67;2.42;;;21.60;99.90;;;;;;5012533;28;20212;-81
2023/08/05 10:51:16;;;;;;;3.92;2.40;;;21.60;99.90;;;;;;4947231;28;20730;-83
2023/08/05 10:54:05;;;;;;;7.22;2.50;;;21.60;99.90;;;;;;4960399;28;20184;-83
2023/08/05 10:56:34;;;;;;;2.80;2.50;;;21.60;99.90;;;;;;4964457;28;20710;-83
2023/08/05 10:59:05;;;;;;;5.22;2.95;;;21.70;99.90;;;;;;4966573;28;20200;-83
2023/08/05 11:01:52;;;;;;;4.40;2.63;;;21.70;99.90;;;;;;4966361;28;20194;-83
2023/08/05 11:04:27;;;;;;;6.35;2.70;;;21.80;99.90;;;;;;4966704;28;20658;-83
2023/08/05 11:06:56;;;;;;;5.38;2.85;;;21.70;99.90;;;;;;4968499;28;20199;-83
2023/08/05 11:09:24;;;;;;;3.95;2.63;;;21.70;99.90;;;;;;4969729;28;20261;-83
2023/08/05 11:11:52;;;;;;;4.55;2.58;;;21.60;99.90;;;;;;4970122;28;20183;-83
2023/08/05 11:14:20;;;;;;;10.38;2.85;;;21.70;99.90;;;;;;4970282;28;20731;-82
2023/08/05 11:16:47;;;;;;;3.22;2.55;;;21.70;99.90;;;;;;4969827;28;20188;-84
2023/08/05 11:19:15;;;;;;;4.18;2.33;;;21.90;99.90;;;;;;4974494;28;20199;-82
2023/08/05 11:21:46;;;;;;;7.57;2.47;;;22.00;99.90;;;;;;4969838;28;20191;-83
2023/08/05 11:24:20;;;;;;;3.90;2.15;;;22.00;99.90;;;;;;4969613;28;20195;-84
2023/08/05 11:26:47;;;;;;;3.80;2.90;;;22.00;99.90;;;;;;4952684;28;20292;-83
2023/08/05 11:29:15;;;;;;;4.72;2.35;;;21.90;99.90;;;;;;4968674;28;20228;-84
2023/08/05 11:31:50;;;;;;;8.07;2.38;;;22.00;99.90;;;;;;4961675;28;20231;-83
2023/08/05 11:34:22;;;;;;;6.68;2.45;;;22.30;99.90;;;;;;4974657;28;20188;-83
2023/08/05 11:36:56;;;;;;;3.90;2.50;;;22.60;99.90;;;;;;4967328;28;20199;-83
2023/08/05 11:39:24;;;;;;;4.40;2.35;;;22.80;99.90;;;;;;4969701;28;20188;-83
2023/08/05 11:41:53;;;;;;;4.65;2.50;;;23.00;99.90;;;;;;4969792;28;20200;-82
2023/08/05 11:44:21;;;;;;;3.88;2.40;;;23.00;99.90;;;;;;4969970;28;20238;-82
2023/08/05 11:46:48;;;;;;;6.93;2.70;;;22.80;99.90;;;;;;4969557;28;20203;-84
2023/08/05 11:49:28;;;;;;;5.18;2.22;;;22.80;99.90;;;;;;4969619;28;20200;-82
2023/08/05 11:51:56;;;;;;;6.03;2.75;;;22.50;99.90;;;;;;4969316;28;20736;-83
2023/08/05 11:54:32;;;;;;;4.60;2.45;;;22.80;99.90;;;;;;4969449;28;20195;-84
2023/08/05 11:57:00;;;;;;;4.47;2.53;;;23.10;99.90;;;;;;4968517;28;20199;-83
2023/08/05 11:59:45;;;;;;;4.15;2.70;;;23.20;99.90;;;;;;4969407;28;20524;-83
2023/08/05 12:02:17;;;;;;;4.90;2.80;;;23.20;99.90;;;;;;4955400;28;20188;-83
2023/08/05 12:04:47;;;;;;;5.85;2.97;;;23.30;99.90;;;;;;4968078;28;20188;-82
2023/08/05 12:07:17;;;;;;;6.05;2.42;;;23.60;99.90;;;;;;4965431;28;20203;-84
2023/08/05 12:09:45;;;;;;;6.60;2.97;;;23.90;99.90;;;;;;4964857;28;20208;-83
2023/08/05 12:12:20;;;;;;;4.97;2.97;;;24.10;99.90;;;;;;4967980;28;20203;-82
2023/08/05 12:14:47;;;;;;;3.38;2.40;;;24.30;99.90;;;;;;4968403;28;20188;-82
2023/08/05 12:17:18;;;;;;;3.28;2.45;;;24.40;99.90;;;;;;4967866;28;20192;-83
2023/08/05 12:19:45;;;;;;;3.65;2.22;;;24.40;99.90;;;;;;4969005;28;20722;-82
2023/08/05 12:22:13;;;;;;;4.07;2.10;;;24.30;99.90;;;;;;4966316;28;20199;-83
2023/08/05 12:24:40;;;;;;;8.60;2.80;;;24.10;99.90;;;;;;4968304;28;20200;-82
2023/08/05 12:27:08;;;;;;;3.55;2.60;;;24.20;99.90;;;;;;4973065;28;20191;-84
2023/08/05 12:29:36;;;;;;;4.00;2.45;;;24.50;99.90;;;;;;4981745;28;20706;-83
2023/08/05 12:32:04;;;;;;;3.65;2.60;;;24.20;99.90;;;;;;4967881;28;20314;-83
2023/08/05 12:34:31;;;;;;;5.53;2.60;;;23.90;99.90;;;;;;4966746;28;20216;-82
2023/08/05 12:36:59;;;;;;;3.00;2.50;;;23.90;99.90;;;;;;4968439;28;20224;-84
2023/08/05 12:39:27;;;;;;;5.05;2.50;;;23.90;99.90;;;;;;4968351;28;20650;-82
2023/08/05 12:41:54;;;;;;;3.38;2.47;;;23.50;99.90;;;;;;4967145;28;20678;-84
2023/08/05 12:44:22;;;;;;;4.15;2.63;;;23.40;99.90;;;;;;4967289;28;20206;-85
2023/08/05 12:46:49;;;;;;;3.65;2.65;;;23.20;99.90;;;;;;4968599;28;20192;-83
2023/08/05 12:49:17;;;;;;;7.55;2.60;;;23.40;99.90;;;;;;4968244;28;20212;-84
2023/08/05 12:51:45;;;;;;;4.25;2.70;;;23.50;99.90;;;;;;4968004;28;20192;-83
2023/08/05 12:54:13;;;;;;;4.00;2.90;;;23.70;99.90;;;;;;4966912;28;20238;-84
2023/08/05 12:56:40;;;;;;;3.97;3.03;;;23.90;99.90;;;;;;4948841;28;20192;-85